Keesler Air Force Base
KBIX : now visible

Airfield :











YOU CAN JOIN US ON...

 
LOGIN :

Register | Disclaimer

   EN    FR    IT 

 









Legend :    VFR   Marginal VFR   IFR   Intensive IFR   Very Intensive IFR
Visi :
Ceiling :
>= 8 km
>= 3000ft
5 to 8 km
1000 to 3000 ft
1500m to 5 km
500 to 1000 ft
800 to 1500m
200 to 500 ft
< 800m
< 200 ft
Symbols :   Thunderstorms  Fog  Heavy snow  Heavy precipitations  Wind > 20 kt






- Airport Elevation : 33 ft


KBIX - Keesler Air Force Base

CURRENT METAR :
  • 220156Z AUTO 02005KT 10SM CLR 15/04 A3014 RMK AO2 SLPNO T01460043

EXPIRED METARs :
  • 220056Z AUTO 36009KT 10SM CLR 16/04 A3012 RMK AO2 SLPNO T01620039
  • 212356Z AUTO 36011KT 10SM CLR 18/03 A3010 RMK AO2 SLP196 T01780029 10204 20178 50007

TAF TAF KBIX
Valid from the 22 at 02:00 until the 23 at 08:00 UTC


220200Z 2202/2308 02009KT 9999 SKC QNH3014INS
BECMG 2214/2215 07010G15KT 9999 SKC QNH3013INS
BECMG 2219/2220 13009KT 9999 FEW250 QNH3004INS TX19/2220Z TN07/2211Z LAST NO AMDS AFT 2204 NEXT 2210
KZHU FIR / North America



MET'MAP, your aeronautical weather chart ! - Copyright ORBIFLY December 2007 - Disclaimer

ORBIFLY MET'MAP TEAM :

Programming & Development : Alexandra Zaïnal
Concept & original design : Baudouin d'Aumeries
Assistance for programming : Marc-Olivier Méhu
Technical & hardware support : Manuel Goepfert

Contact : metmap@orbifly.com




SOURCES & CREDITS :

   NOAA       Earth
Advisory